Aeroporto :







RITROVATECI SU...

 
LOGIN :

Iscrizione | Disclaimer

   EN    FR    IT 

 









Sommario :    VFR   VFR Marginale   IFR   IFR Intensivo   IFR Molto Intensivo
Visibilità : 
Base nubi : 
>= 8 km
>= 3000ft
5 / 8 km
1000 / 3000 ft
1500m / 5 km
500 / 1000 ft
800 / 1500m
200 / 500 ft
< 800m
< 200 ft
Simboli :   Temporali  Nebbia  Neve Forte  Precipitazioni Forti  Vento > 20 kt






- Altitudine del aeroporto : 1411 ft
- Codice IATA : VLN


SVVA - Arturo Michelena Int.

ULTIMO METAR :
  • 191902Z AUTO 05005KT NCD 33/16 Q1013

METARs OBSOLETI :
  • 191802Z AUTO 08010KT NCD 32/16 Q1014
  • 191800Z /////KT 9999 SCT016 33/19 Q1013
  • 191702Z AUTO 07011KT NCD 30/18 Q1016
  • 191700Z /////KT 9999 SCT016 32/19 Q1014

TAF TAF SVVA
Valido dal 19 a 00 ore il 20 a 00 ore UTC


182300Z 1900/2000 36005KT FEW016 SCT100 TX34/1820 TN24/1909
BECMG 1902/1906 00000KT SCT016
BECMG 1907/1911 07005KT BKN016



MetMap, La meteo Aeronautica in un colpo d'occhio ! - Copyright ORBIFLY Dicembre 2007 - Disclaimer

ORBIFLY MET'MAP TEAM :

Programmazione e sviluppo : Alexandra Zaïnal
Concezione : Baudouin d'Aumeries
Aiuto per la programmazione : Marc-Olivier Méhu
Supporto tecnico e logistico : Manuel Goepfert
Aiuto per la traduzione : Arnaldo La Scala

Contatto : metmap@orbifly.com




FONTI E CREDITI :

   NOAA